Time;durP1;ratioP1;P1;durP2;ratioP2;P2;SDS_P1;SDS_P2;PMS_P1;PMS_P2;Temp;Humidity;BMP_temperature;BMP_pressure;BME280_temperature;BME280_humidity;BME280_pressure;Samples;Min_cycle;Max_cycle;Signal;HPM_P1;HPM_P2
2024/04/23 00:00:29;;;;;;;2.92;0.40;;;;;;;;;;22581901;26;19998;-45
2024/04/23 00:10:32;;;;;;;0.55;0.20;;;;;;;;;;22679416;26;20341;-43
2024/04/23 00:20:33;;;;;;;2.03;0.32;;;;;;;;;;22703594;26;20010;-43
2024/04/23 00:30:35;;;;;;;3.03;0.40;;;;;;;;;;22704544;26;20362;-45
2024/04/23 00:40:36;;;;;;;1.45;0.30;;;;;;;;;;22673368;26;20013;-44
2024/04/23 00:50:38;;;;;;;2.03;0.30;;;;;;;;;;22567402;26;20034;-42
2024/04/23 01:00:39;;;;;;;2.08;0.38;;;;;;;;;;22653015;26;20129;-41
2024/04/23 01:11:09;;;;;;;2.08;0.40;;;;;;;;;;22669010;26;20509;-43
2024/04/23 01:32:08;;;;;;;1.45;0.47;;;;;;;;;;22670553;26;20028;-41
2024/04/23 01:42:11;;;;;;;0.50;0.30;;;;;;;;;;22595227;26;20002;-43
2024/04/23 01:52:31;;;;;;;2.25;0.55;;;;;;;;;;22675759;26;20010;-42
2024/04/23 02:02:33;;;;;;;2.17;0.50;;;;;;;;;;22699796;26;20010;-43
2024/04/23 02:12:36;;;;;;;1.48;0.50;;;;;;;;;;22697999;26;20078;-44
2024/04/23 02:22:39;;;;;;;1.37;0.40;;;;;;;;;;22682451;26;20033;-44
2024/04/23 02:32:40;;;;;;;2.17;0.40;;;;;;;;;;22692076;26;20011;-43
2024/04/23 02:42:43;;;;;;;3.00;1.10;;;;;;;;;;22575170;26;19998;-44
2024/04/23 02:52:44;;;;;;;2.13;0.40;;;;;;;;;;22649935;26;20398;-44
2024/04/23 03:03:18;;;;;;;1.48;0.57;;;;;;;;;;22711401;26;20017;-45
2024/04/23 03:13:19;;;;;;;4.67;0.73;;;;;;;;;;22710618;26;20025;-43
2024/04/23 03:23:21;;;;;;;0.95;0.47;;;;;;;;;;22710488;26;20006;-44
2024/04/23 03:33:22;;;;;;;4.38;0.50;;;;;;;;;;22688391;26;20011;-45
2024/04/23 03:43:24;;;;;;;1.42;0.70;;;;;;;;;;22566086;26;19999;-44
2024/04/23 03:53:25;;;;;;;2.90;1.20;;;;;;;;;;22654386;26;20514;-43
2024/04/23 04:13:48;;;;;;;3.03;0.80;;;;;;;;;;22704904;26;20254;-42
2024/04/23 04:23:49;;;;;;;2.67;0.90;;;;;;;;;;22672590;26;20017;-43
2024/04/23 04:33:51;;;;;;;1.98;0.60;;;;;;;;;;22693398;26;20071;-44
2024/04/23 04:43:53;;;;;;;2.10;0.70;;;;;;;;;;22623777;26;20329;-44
2024/04/23 05:04:55;;;;;;;4.82;1.23;;;;;;;;;;22699297;26;20488;-42
2024/04/23 05:14:57;;;;;;;5.57;0.93;;;;;;;;;;22554141;26;19999;-44
2024/04/23 05:24:59;;;;;;;4.18;1.00;;;;;;;;;;22680083;26;20006;-42
2024/04/23 05:35:00;;;;;;;2.33;0.90;;;;;;;;;;22656747;26;20337;-42
2024/04/23 05:45:03;;;;;;;4.13;0.80;;;;;;;;;;22559530;26;19998;-41
2024/04/23 05:55:24;;;;;;;2.03;0.60;;;;;;;;;;22709894;26;20017;-42
2024/04/23 06:05:25;;;;;;;4.15;1.25;;;;;;;;;;22733109;26;20425;-43
2024/04/23 06:15:27;;;;;;;5.32;0.90;;;;;;;;;;22733082;26;20030;-43
2024/04/23 06:25:29;;;;;;;3.63;1.10;;;;;;;;;;22727396;26;20010;-44
2024/04/23 06:36:04;;;;;;;3.08;1.58;;;;;;;;;;22661132;26;20003;-43
2024/04/23 06:46:06;;;;;;;5.68;0.88;;;;;;;;;;22641703;26;20083;-43
2024/04/23 06:56:07;;;;;;;4.07;1.15;;;;;;;;;;22613438;26;20007;-42
2024/04/23 07:17:19;;;;;;;3.30;0.80;;;;;;;;;;22631487;26;20351;-45
2024/04/23 07:27:21;;;;;;;8.13;1.13;;;;;;;;;;22693605;26;20033;-45
2024/04/23 07:37:23;;;;;;;3.28;0.95;;;;;;;;;;22640178;26;20420;-43
2024/04/23 07:47:26;;;;;;;4.38;1.10;;;;;;;;;;22620212;26;20375;-42
2024/04/23 07:57:27;;;;;;;5.40;0.80;;;;;;;;;;22619890;26;20002;-42
2024/04/23 08:07:30;;;;;;;3.13;0.60;;;;;;;;;;22709755;26;20021;-42
2024/04/23 08:17:32;;;;;;;3.45;0.70;;;;;;;;;;22703338;26;20074;-42
2024/04/23 08:28:04;;;;;;;3.60;0.70;;;;;;;;;;22688565;26;20010;-42
2024/04/23 08:38:06;;;;;;;2.88;0.90;;;;;;;;;;22555622;26;20053;-42
2024/04/23 08:48:08;;;;;;;6.05;0.93;;;;;;;;;;22694887;26;20018;-45
2024/04/23 08:58:13;;;;;;;3.13;0.77;;;;;;;;;;22707808;26;20006;-46
2024/04/23 09:08:15;;;;;;;6.07;1.25;;;;;;;;;;22674498;26;20013;-46
2024/04/23 09:18:17;;;;;;;6.07;1.00;;;;;;;;;;22550180;26;20005;-47
2024/04/23 09:28:22;;;;;;;4.43;0.60;;;;;;;;;;22640641;26;20002;-48
2024/04/23 09:38:24;;;;;;;1.85;0.50;;;;;;;;;;22590756;26;20445;-48
2024/04/23 09:48:44;;;;;;;6.32;0.60;;;;;;;;;;22699471;26;20038;-47
2024/04/23 09:58:46;;;;;;;2.92;0.40;;;;;;;;;;22703935;26;20034;-45
2024/04/23 10:09:10;;;;;;;1.33;0.50;;;;;;;;;;22663218;26;20014;-46
2024/04/23 10:19:15;;;;;;;4.82;0.70;;;;;;;;;;22656447;26;20003;-46
2024/04/23 10:29:18;;;;;;;4.72;0.70;;;;;;;;;;22550006;26;20403;-46
2024/04/23 10:39:22;;;;;;;2.60;0.40;;;;;;;;;;22597722;26;20010;-46
2024/04/23 10:49:28;;;;;;;1.53;0.60;;;;;;;;;;22637542;26;20030;-47
2024/04/23 10:59:34;;;;;;;9.23;1.90;;;;;;;;;;22685052;26;20020;-46
2024/04/23 11:09:42;;;;;;;4.40;0.75;;;;;;;;;;22692914;26;19998;-46
2024/04/23 11:19:49;;;;;;;3.00;0.85;;;;;;;;;;22686080;26;20427;-47
2024/04/23 11:29:50;;;;;;;5.63;1.10;;;;;;;;;;22678793;26;20003;-47
2024/04/23 11:39:58;;;;;;;3.28;0.88;;;;;;;;;;22629897;26;20003;-49
2024/04/23 11:50:03;;;;;;;3.53;1.17;;;;;;;;;;22694782;26;20434;-50
2024/04/23 12:00:10;;;;;;;3.78;0.70;;;;;;;;;;22655772;26;20010;-51
2024/04/23 12:10:30;;;;;;;4.15;0.90;;;;;;;;;;22682721;26;20434;-49
2024/04/23 12:20:32;;;;;;;3.60;0.75;;;;;;;;;;22706174;26;20006;-49
2024/04/23 12:30:34;;;;;;;2.83;1.30;;;;;;;;;;22704833;26;20013;-46
2024/04/23 12:40:36;;;;;;;1.73;0.20;;;;;;;;;;22610188;26;20094;-48
2024/04/23 12:50:38;;;;;;;3.92;0.90;;;;;;;;;;22662748;26;20016;-47
2024/04/23 13:12:10;;;;;;;1.13;0.32;;;;;;;;;;22691237;26;19998;-49
2024/04/23 13:22:13;;;;;;;1.13;0.22;;;;;;;;;;22696778;26;20002;-50
2024/04/23 13:32:15;;;;;;;1.63;0.28;;;;;;;;;;22678473;26;20035;-48
2024/04/23 13:42:18;;;;;;;1.85;0.30;;;;;;;;;;22624950;26;20034;-48
2024/04/23 13:52:20;;;;;;;1.70;0.40;;;;;;;;;;22700937;26;20030;-49
2024/04/23 14:02:25;;;;;;;0.75;0.20;;;;;;;;;;22698439;26;20017;-51
2024/04/23 14:12:27;;;;;;;0.73;0.20;;;;;;;;;;22704338;26;20076;-50
2024/04/23 14:22:30;;;;;;;2.50;0.30;;;;;;;;;;22715510;26;20050;-50
2024/04/23 14:32:32;;;;;;;1.75;0.20;;;;;;;;;;22705481;26;19998;-50
2024/04/23 14:42:35;;;;;;;4.57;1.65;;;;;;;;;;22700705;26;20043;-50
2024/04/23 14:52:38;;;;;;;1.93;0.30;;;;;;;;;;22707677;26;20010;-50
2024/04/23 15:02:40;;;;;;;1.00;0.50;;;;;;;;;;22713229;26;20303;-49
2024/04/23 15:12:42;;;;;;;0.50;0.13;;;;;;;;;;22558195;26;20043;-49
2024/04/23 15:22:44;;;;;;;4.88;0.25;;;;;;;;;;22620047;26;20042;-47
2024/04/23 15:32:45;;;;;;;1.95;0.10;;;;;;;;;;22642807;26;20013;-48
2024/04/23 15:42:48;;;;;;;0.68;0.10;;;;;;;;;;22680147;26;20002;-50
2024/04/23 15:52:49;;;;;;;0.65;0.10;;;;;;;;;;22700822;26;20411;-48
2024/04/23 16:02:52;;;;;;;2.40;0.20;;;;;;;;;;22707125;26;20040;-48
2024/04/23 16:12:54;;;;;;;0.52;0.20;;;;;;;;;;22710850;26;20017;-48
2024/04/23 16:22:55;;;;;;;3.20;0.17;;;;;;;;;;22710187;26;20349;-49
2024/04/23 16:32:59;;;;;;;5.35;0.30;;;;;;;;;;22693149;26;20006;-45
2024/04/23 16:43:00;;;;;;;1.65;0.30;;;;;;;;;;22558485;26;20035;-45
2024/04/23 16:53:02;;;;;;;3.70;0.65;;;;;;;;;;22668566;26;19998;-44
2024/04/23 17:03:05;;;;;;;0.60;0.10;;;;;;;;;;22707630;26;20024;-47
2024/04/23 17:13:06;;;;;;;0.95;0.10;;;;;;;;;;22652061;26;20311;-45
2024/04/23 17:23:08;;;;;;;2.88;0.50;;;;;;;;;;22652601;26;20002;-51
2024/04/23 17:33:11;;;;;;;3.15;0.32;;;;;;;;;;22668121;26;20348;-51
2024/04/23 17:43:17;;;;;;;0.88;0.30;;;;;;;;;;22635498;26;20337;-52
2024/04/23 17:53:19;;;;;;;1.58;0.20;;;;;;;;;;22702919;26;20002;-51
2024/04/23 18:03:22;;;;;;;1.45;0.13;;;;;;;;;;22682235;26;20029;-50
2024/04/23 18:13:24;;;;;;;1.70;0.40;;;;;;;;;;22695089;26;20440;-50
2024/04/23 18:23:28;;;;;;;2.92;0.30;;;;;;;;;;22677306;26;20009;-50
2024/04/23 18:34:00;;;;;;;3.33;0.60;;;;;;;;;;22681495;26;20035;-53
2024/04/23 18:44:01;;;;;;;2.63;0.40;;;;;;;;;;22682280;26;20051;-52
2024/04/23 18:54:03;;;;;;;1.02;0.40;;;;;;;;;;22685476;26;20013;-51
2024/04/23 19:04:06;;;;;;;2.30;1.27;;;;;;;;;;22683427;26;20006;-51
2024/04/23 19:14:10;;;;;;;4.68;1.02;;;;;;;;;;22702656;26;20398;-49
2024/04/23 19:24:11;;;;;;;5.57;0.63;;;;;;;;;;22711442;26;20314;-52
2024/04/23 19:34:13;;;;;;;2.17;0.60;;;;;;;;;;22687773;26;20011;-51
2024/04/23 19:44:16;;;;;;;3.63;0.70;;;;;;;;;;22696923;26;20002;-53
2024/04/23 19:54:17;;;;;;;2.97;1.17;;;;;;;;;;22662963;26;20402;-54
2024/04/23 20:04:19;;;;;;;4.07;0.52;;;;;;;;;;22684776;26;20725;-52
2024/04/23 20:14:20;;;;;;;8.65;0.85;;;;;;;;;;22773152;20;20008;-47
2024/04/23 20:24:22;;;;;;;2.13;0.60;;;;;;;;;;22769950;26;20016;-48
2024/04/23 20:34:24;;;;;;;3.65;0.45;;;;;;;;;;22790710;26;20024;-48
2024/04/23 20:44:26;;;;;;;2.40;0.47;;;;;;;;;;22790775;26;20354;-48
2024/04/23 20:54:27;;;;;;;2.40;0.50;;;;;;;;;;22839041;26;20489;-51
2024/04/23 21:04:29;;;;;;;3.85;0.60;;;;;;;;;;22784913;25;20037;-48
2024/04/23 21:14:31;;;;;;;1.60;0.60;;;;;;;;;;22854706;25;20029;-48
2024/04/23 21:24:33;;;;;;;2.25;0.50;;;;;;;;;;22822227;26;20017;-48
2024/04/23 21:34:35;;;;;;;1.45;0.40;;;;;;;;;;22855384;25;20445;-50
2024/04/23 21:44:36;;;;;;;3.50;0.30;;;;;;;;;;22817139;25;20390;-48
2024/04/23 21:54:44;;;;;;;1.42;0.28;;;;;;;;;;22788533;26;20409;-49
2024/04/23 22:04:58;;;;;;;1.35;0.30;;;;;;;;;;22763418;26;20489;-49
2024/04/23 22:15:00;;;;;;;2.17;0.90;;;;;;;;;;22847135;25;20333;-48
2024/04/23 22:25:02;;;;;;;0.52;0.20;;;;;;;;;;22852738;25;20009;-48
2024/04/23 22:35:04;;;;;;;2.03;0.20;;;;;;;;;;22860509;25;20017;-48
2024/04/23 22:45:06;;;;;;;0.43;0.13;;;;;;;;;;22857141;25;20012;-47
2024/04/23 22:55:07;;;;;;;1.77;0.10;;;;;;;;;;22755722;26;19997;-47
2024/04/23 23:05:09;;;;;;;1.95;0.20;;;;;;;;;;22837471;26;20367;-47
2024/04/23 23:15:11;;;;;;;1.23;0.52;;;;;;;;;;22790529;25;20359;-47
2024/04/23 23:25:13;;;;;;;0.52;0.10;;;;;;;;;;22858392;25;20013;-47
2024/04/23 23:35:15;;;;;;;0.65;0.15;;;;;;;;;;22765116;25;19998;-48
2024/04/23 23:45:18;;;;;;;3.03;0.75;;;;;;;;;;22785843;25;20024;-47
2024/04/23 23:55:21;;;;;;;1.63;0.15;;;;;;;;;;22855749;26;20016;-49
